createdAt,value
2023-05-12T00:01:55.430Z,76.07
2023-05-12T00:04:22.717Z,76.35
2023-05-12T00:06:49.297Z,76.08
2023-05-12T00:09:16.122Z,76.63
2023-05-12T00:11:42.664Z,76.80
2023-05-12T00:14:09.352Z,77.80
2023-05-12T00:16:36.028Z,77.10
2023-05-12T00:19:02.787Z,76.44
2023-05-12T00:21:29.442Z,76.42
2023-05-12T00:23:56.391Z,76.53
2023-05-12T00:26:22.889Z,76.11
2023-05-12T00:28:49.449Z,74.47
2023-05-12T00:31:16.418Z,74.24
2023-05-12T00:33:43.224Z,73.90
2023-05-12T00:36:09.907Z,74.83
2023-05-12T00:38:37.400Z,75.59
2023-05-12T00:41:04.708Z,74.51
2023-05-12T00:43:31.896Z,75.18
2023-05-12T00:46:00.270Z,73.99
2023-05-12T00:48:27.033Z,74.82
2023-05-12T00:50:54.691Z,76.71
2023-05-12T00:53:21.192Z,76.01
2023-05-12T00:55:47.844Z,75.46
2023-05-12T00:58:14.578Z,75.43
2023-05-12T01:00:41.117Z,74.59
2023-05-12T01:03:08.405Z,73.58
2023-05-12T01:05:51.072Z,72.47
2023-05-12T01:08:17.913Z,71.90
2023-05-12T01:10:44.999Z,71.51
2023-05-12T01:13:11.600Z,70.81
2023-05-12T01:15:40.678Z,70.58
2023-05-12T01:18:07.407Z,70.55
2023-05-12T01:20:34.659Z,70.19
2023-05-12T01:23:02.229Z,70.35
2023-05-12T01:25:31.486Z,71.04
2023-05-12T01:27:57.956Z,71.04
2023-05-12T01:30:25.068Z,72.39
2023-05-12T01:32:52.578Z,71.50
2023-05-12T01:35:19.148Z,71.74
2023-05-12T01:37:46.490Z,72.61
2023-05-12T01:40:13.225Z,72.33
2023-05-12T01:42:41.579Z,72.37
2023-05-12T01:45:09.248Z,72.12
2023-05-12T01:47:35.825Z,74.05
2023-05-12T01:50:02.346Z,74.73
2023-05-12T01:52:29.004Z,74.30
2023-05-12T01:54:55.463Z,73.74
2023-05-12T01:57:22.102Z,73.10
2023-05-12T01:59:49.285Z,72.56
2023-05-12T02:02:15.949Z,72.30
2023-05-12T02:04:43.189Z,72.87
2023-05-12T02:07:10.838Z,72.68
2023-05-12T02:09:37.404Z,71.73
2023-05-12T02:12:05.419Z,71.63
2023-05-12T02:14:33.033Z,71.54
2023-05-12T02:17:00.419Z,70.55
2023-05-12T02:19:27.475Z,69.96
2023-05-12T02:21:53.941Z,69.93
2023-05-12T02:24:21.308Z,69.61
2023-05-12T02:26:47.844Z,69.17
2023-05-12T02:29:14.326Z,70.58
2023-05-12T02:31:41.180Z,69.62
2023-05-12T02:34:07.737Z,69.70
2023-05-12T02:36:34.513Z,69.84
2023-05-12T02:39:01.325Z,69.42
2023-05-12T02:41:27.940Z,71.02
2023-05-12T02:43:54.908Z,70.47
2023-05-12T02:46:22.054Z,70.06
2023-05-12T02:48:48.709Z,69.71
2023-05-12T02:51:15.303Z,70.01
2023-05-12T02:53:42.878Z,70.23
2023-05-12T02:56:09.529Z,69.76
2023-05-12T02:58:36.569Z,69.36
2023-05-12T03:01:09.950Z,69.39
2023-05-12T03:03:38.297Z,69.05
2023-05-12T03:06:06.059Z,69.39
2023-05-12T03:08:33.061Z,68.50
2023-05-12T03:10:59.513Z,68.86
2023-05-12T03:13:26.616Z,68.77
2023-05-12T03:15:53.259Z,68.46
2023-05-12T03:18:20.021Z,68.64
2023-05-12T03:20:47.284Z,68.49
2023-05-12T03:23:13.936Z,70.02
2023-05-12T03:25:40.396Z,69.27
2023-05-12T03:28:07.847Z,69.02
2023-05-12T03:30:34.524Z,68.77
2023-05-12T03:33:01.072Z,69.85
2023-05-12T03:35:27.797Z,67.93
2023-05-12T03:37:54.315Z,68.31
2023-05-12T03:40:21.189Z,68.31
2023-05-12T03:42:48.011Z,69.32
2023-05-12T03:45:14.512Z,68.84
2023-05-12T03:47:41.479Z,68.04
2023-05-12T03:50:08.387Z,68.11
2023-05-12T03:52:35.152Z,67.69
2023-05-12T03:55:02.897Z,67.24
2023-05-12T03:57:29.392Z,68.54
2023-05-12T03:59:56.019Z,69.40
2023-05-12T04:02:22.944Z,69.47
2023-05-12T04:04:49.593Z,68.75
2023-05-12T04:07:16.572Z,68.13
2023-05-12T04:09:44.085Z,67.13
2023-05-12T04:12:10.939Z,67.03
2023-05-12T04:14:42.855Z,67.44
2023-05-12T04:17:10.810Z,66.65
2023-05-12T04:19:37.356Z,66.33
2023-05-12T04:22:03.998Z,66.60
2023-05-12T04:24:31.308Z,66.55
2023-05-12T04:26:58.035Z,65.66
2023-05-12T04:29:24.713Z,66.58
2023-05-12T04:31:51.334Z,66.70
2023-05-12T04:34:18.068Z,65.84
2023-05-12T04:36:44.852Z,65.43
2023-05-12T04:39:11.331Z,65.22
2023-05-12T04:41:38.481Z,64.87
2023-05-12T04:44:05.350Z,65.72
2023-05-12T04:46:31.923Z,65.87
2023-05-12T04:48:58.642Z,65.00
2023-05-12T04:51:25.230Z,64.81
2023-05-12T04:53:51.974Z,65.56
2023-05-12T04:56:18.837Z,64.85
2023-05-12T04:58:45.413Z,64.85
2023-05-12T05:01:13.651Z,64.56
2023-05-12T05:03:40.873Z,64.16
2023-05-12T05:06:08.021Z,65.38
2023-05-12T05:08:34.962Z,64.04
2023-05-12T05:11:01.516Z,63.00
2023-05-12T05:13:27.991Z,63.70
2023-05-12T05:15:55.460Z,63.19
2023-05-12T05:18:24.260Z,62.59
2023-05-12T05:20:57.959Z,63.01
2023-05-12T05:23:26.023Z,62.26
2023-05-12T05:25:52.875Z,62.82
2023-05-12T05:28:19.812Z,61.99
2023-05-12T05:30:46.309Z,61.76
2023-05-12T05:33:13.278Z,61.95
2023-05-12T05:35:42.503Z,62.01
2023-05-12T05:38:09.319Z,62.03
2023-05-12T05:40:49.241Z,61.78
2023-05-12T05:43:19.964Z,62.03
2023-05-12T05:45:46.468Z,61.86
2023-05-12T05:48:13.528Z,63.43
2023-05-12T05:50:40.098Z,62.08
2023-05-12T05:53:06.797Z,62.76
2023-05-12T05:55:33.386Z,62.54
2023-05-12T05:58:00.051Z,62.94
2023-05-12T06:00:27.293Z,62.47
2023-05-12T06:02:54.104Z,61.98
2023-05-12T06:05:20.879Z,62.55
2023-05-12T06:07:47.658Z,62.49
2023-05-12T06:10:14.202Z,61.47
2023-05-12T06:12:41.122Z,60.70
2023-05-12T06:15:08.604Z,61.96
2023-05-12T06:17:35.271Z,62.19
2023-05-12T06:20:04.928Z,62.10
2023-05-12T06:22:31.642Z,62.20
2023-05-12T06:24:58.372Z,62.47
2023-05-12T06:27:25.224Z,63.02
2023-05-12T06:29:52.794Z,62.66
2023-05-12T06:32:19.454Z,62.46
2023-05-12T06:34:46.166Z,61.66
2023-05-12T06:37:12.714Z,61.80
2023-05-12T06:39:39.171Z,61.58
2023-05-12T06:42:06.493Z,60.59
2023-05-12T06:44:33.053Z,61.80
2023-05-12T06:46:59.747Z,62.22
2023-05-12T06:49:26.423Z,62.77
2023-05-12T06:51:53.200Z,60.88
2023-05-12T06:54:19.666Z,61.90
2023-05-12T06:56:46.537Z,60.31
2023-05-12T06:59:14.091Z,60.99
2023-05-12T07:01:42.907Z,60.98
2023-05-12T07:04:09.733Z,60.23
2023-05-12T07:06:36.368Z,60.81
2023-05-12T07:09:02.973Z,59.39
2023-05-12T07:11:30.351Z,59.92
2023-05-12T07:13:56.891Z,58.94
2023-05-12T07:16:23.485Z,58.82
2023-05-12T07:18:50.449Z,59.31
2023-05-12T07:21:17.080Z,59.12
2023-05-12T07:23:44.003Z,58.42
2023-05-12T07:26:10.562Z,58.39
2023-05-12T07:28:37.219Z,57.27
2023-05-12T07:31:05.060Z,58.16
2023-05-12T07:33:31.796Z,57.39
2023-05-12T07:35:58.324Z,57.31
2023-05-12T07:38:25.344Z,56.47
2023-05-12T07:40:51.873Z,55.71
2023-05-12T07:43:18.917Z,55.16
2023-05-12T07:45:46.102Z,54.22
2023-05-12T07:48:13.047Z,54.56
2023-05-12T07:50:39.948Z,53.88
2023-05-12T07:53:06.937Z,53.76
2023-05-12T07:55:33.925Z,53.28
2023-05-12T07:58:01.154Z,52.90
2023-05-12T08:00:28.091Z,53.00
2023-05-12T08:02:55.507Z,52.30
2023-05-12T08:05:22.421Z,51.72
2023-05-12T08:07:49.491Z,50.89
2023-05-12T08:10:17.140Z,49.46
2023-05-12T08:12:44.024Z,48.84
2023-05-12T08:15:10.640Z,48.27
2023-05-12T08:17:37.126Z,47.94
2023-05-12T08:20:05.121Z,48.24
2023-05-12T08:22:32.616Z,48.09
2023-05-12T08:24:59.736Z,46.85
2023-05-12T08:27:26.412Z,48.45
2023-05-12T08:29:52.926Z,47.41
2023-05-12T08:32:19.703Z,47.01
2023-05-12T08:34:46.312Z,45.49
2023-05-12T08:37:12.917Z,46.00
2023-05-12T08:39:40.461Z,46.01
2023-05-12T08:42:42.990Z,45.08
2023-05-12T08:45:11.141Z,48.53
2023-05-12T08:47:38.232Z,47.78
2023-05-12T08:50:05.921Z,49.02
2023-05-12T08:52:34.253Z,48.56
2023-05-12T08:55:03.295Z,47.77
2023-05-12T08:57:31.183Z,48.30
2023-05-12T09:00:00.053Z,49.75
2023-05-12T09:02:30.911Z,48.44
2023-05-12T09:05:04.801Z,48.60
2023-05-12T09:07:32.574Z,47.83
2023-05-12T09:10:00.952Z,46.77
2023-05-12T09:12:31.724Z,46.97
2023-05-12T09:15:04.492Z,46.45
2023-05-12T09:17:31.118Z,44.98
2023-05-12T09:19:57.678Z,43.87
2023-05-12T09:22:31.768Z,41.89
2023-05-12T09:24:58.634Z,39.58
2023-05-12T09:27:28.851Z,39.21
2023-05-12T09:29:59.731Z,38.98
2023-05-12T09:32:33.526Z,39.21
2023-05-12T09:35:12.617Z,38.79
2023-05-12T09:37:42.748Z,39.85
2023-05-12T09:40:11.554Z,39.47
2023-05-12T09:42:38.362Z,38.62
2023-05-12T09:45:06.324Z,38.56
2023-05-12T09:47:37.581Z,37.57
2023-05-12T09:50:05.722Z,36.67
2023-05-12T09:52:37.747Z,36.02
2023-05-12T09:55:12.710Z,35.14
2023-05-12T09:57:41.287Z,35.22
2023-05-12T10:00:30.190Z,37.70
2023-05-12T10:03:01.559Z,36.66
2023-05-12T10:05:28.681Z,36.33
2023-05-12T10:07:57.794Z,35.18
2023-05-12T10:10:26.404Z,34.27
2023-05-12T10:12:52.971Z,34.59
2023-05-12T10:15:20.526Z,33.68
2023-05-12T10:17:50.857Z,32.37
2023-05-12T10:20:19.299Z,32.88
2023-05-12T10:22:46.702Z,32.22
2023-05-12T10:25:13.871Z,30.36
2023-05-12T10:27:41.561Z,27.92
2023-05-12T10:30:08.965Z,26.86
2023-05-12T10:32:36.140Z,26.01
2023-05-12T10:35:10.715Z,26.37
2023-05-12T10:37:37.717Z,24.82
2023-05-12T10:40:05.080Z,24.59
2023-05-12T10:42:43.186Z,21.89
2023-05-12T10:45:17.651Z,20.34
2023-05-12T10:47:47.770Z,18.88
2023-05-12T10:50:14.695Z,18.15
2023-05-12T10:52:53.693Z,16.10
2023-05-12T10:55:34.063Z,16.51
2023-05-12T10:58:09.794Z,17.13
2023-05-12T11:00:55.125Z,17.51
2023-05-12T11:03:26.077Z,16.74
2023-05-12T11:06:05.390Z,14.76
2023-05-12T11:08:35.633Z,14.71
2023-05-12T11:11:03.412Z,14.24
2023-05-12T11:13:29.959Z,12.51
2023-05-12T11:15:57.170Z,13.61
2023-05-12T11:18:24.170Z,16.10
2023-05-12T11:20:51.459Z,15.35
2023-05-12T11:23:29.043Z,14.73
2023-05-12T11:25:56.277Z,14.02
2023-05-12T11:28:23.037Z,14.39
2023-05-12T11:30:54.914Z,14.27
2023-05-12T11:33:22.884Z,13.52
2023-05-12T11:35:50.445Z,13.61
2023-05-12T11:38:18.606Z,15.08
2023-05-12T11:40:45.529Z,15.03
2023-05-12T11:43:12.886Z,18.66
2023-05-12T11:45:39.338Z,18.40
2023-05-12T11:48:11.511Z,18.63
2023-05-12T11:50:43.194Z,19.42
2023-05-12T11:53:12.206Z,20.84
2023-05-12T11:55:51.279Z,20.76
2023-05-12T11:58:26.876Z,22.25
2023-05-12T12:00:54.566Z,22.21
2023-05-12T12:03:21.514Z,20.31
2023-05-12T12:06:02.892Z,20.63
2023-05-12T12:08:29.803Z,22.48
2023-05-12T12:10:56.381Z,22.42
2023-05-12T12:13:24.309Z,24.22
2023-05-12T12:15:51.034Z,24.01
2023-05-12T12:18:18.907Z,25.38
2023-05-12T12:20:47.482Z,26.91
2023-05-12T12:23:13.956Z,27.20
2023-05-12T12:25:40.722Z,28.78
2023-05-12T12:28:08.203Z,29.33
2023-05-12T12:30:34.790Z,30.48
2023-05-12T12:33:01.463Z,31.72
2023-05-12T12:35:28.004Z,34.03
2023-05-12T12:37:55.408Z,36.50
2023-05-12T12:40:22.043Z,36.12
2023-05-12T12:42:48.593Z,36.44
2023-05-12T12:45:16.179Z,36.22
2023-05-12T12:47:43.454Z,36.74
2023-05-12T12:50:10.886Z,37.47
2023-05-12T12:52:38.351Z,36.54
2023-05-12T12:55:06.672Z,37.29
2023-05-12T12:57:33.492Z,35.54
2023-05-12T13:00:00.093Z,34.77
2023-05-12T13:02:27.104Z,34.77
2023-05-12T13:04:53.794Z,33.10
2023-05-12T13:07:20.897Z,34.33
2023-05-12T13:09:47.833Z,33.29
2023-05-12T13:12:14.684Z,33.84
2023-05-12T13:14:41.657Z,33.09
2023-05-12T13:17:08.392Z,33.28
2023-05-12T13:19:37.210Z,33.15
2023-05-12T13:22:05.256Z,33.21
2023-05-12T13:24:31.739Z,33.77
2023-05-12T13:26:58.473Z,34.21
2023-05-12T13:29:25.291Z,33.56
2023-05-12T13:31:51.844Z,31.00
2023-05-12T13:34:18.554Z,31.64
2023-05-12T13:36:45.145Z,30.13
2023-05-12T13:39:12.679Z,29.47
2023-05-12T13:41:39.538Z,29.36
2023-05-12T13:44:06.167Z,28.58
2023-05-12T13:46:32.861Z,29.79
2023-05-12T13:48:59.824Z,30.61
2023-05-12T13:51:26.711Z,30.62
2023-05-12T13:53:53.530Z,30.92
2023-05-12T13:56:21.054Z,31.30
2023-05-12T13:58:47.786Z,32.27
2023-05-12T14:01:14.896Z,32.08
2023-05-12T14:03:42.665Z,31.22
2023-05-12T14:06:09.349Z,30.13
2023-05-12T14:08:36.420Z,29.93
2023-05-12T14:11:03.219Z,31.41
2023-05-12T14:13:30.969Z,32.26
2023-05-12T14:15:57.724Z,30.30
2023-05-12T14:18:25.040Z,28.92
2023-05-12T14:20:52.340Z,28.52
2023-05-12T14:23:18.826Z,29.15
2023-05-12T14:25:45.633Z,29.84
2023-05-12T14:28:12.457Z,31.85
2023-05-12T14:30:39.108Z,33.48
2023-05-12T14:33:05.646Z,33.02
2023-05-12T14:35:32.536Z,33.75
2023-05-12T14:37:59.031Z,34.35
2023-05-12T14:40:27.210Z,34.69
2023-05-12T14:42:55.116Z,33.16
2023-05-12T14:45:22.038Z,32.28
2023-05-12T14:47:49.190Z,31.25
2023-05-12T14:50:15.962Z,30.66
2023-05-12T14:52:42.440Z,30.08
2023-05-12T14:55:13.817Z,29.85
2023-05-12T14:57:44.419Z,30.21
2023-05-12T15:00:13.018Z,30.26
2023-05-12T15:02:40.426Z,30.47
2023-05-12T15:05:08.405Z,30.30
2023-05-12T15:07:35.304Z,30.94
2023-05-12T15:10:01.912Z,30.74
2023-05-12T15:12:28.487Z,30.30
2023-05-12T15:14:56.346Z,30.05
2023-05-12T15:17:23.179Z,30.12
2023-05-12T15:19:50.229Z,30.34
2023-05-12T15:22:16.708Z,31.37
2023-05-12T15:24:43.357Z,30.39
2023-05-12T15:27:10.046Z,30.20
2023-05-12T15:29:40.739Z,29.82
2023-05-12T15:32:07.984Z,29.14
2023-05-12T15:34:35.062Z,29.78
2023-05-12T15:37:01.963Z,29.32
2023-05-12T15:39:28.758Z,30.65
2023-05-12T15:41:55.377Z,30.59
2023-05-12T15:44:21.907Z,30.62
2023-05-12T15:46:48.685Z,30.17
2023-05-12T15:49:15.243Z,30.64
2023-05-12T15:51:41.870Z,30.61
2023-05-12T15:54:09.719Z,30.47
2023-05-12T15:56:38.219Z,30.49
2023-05-12T15:59:07.785Z,30.60
2023-05-12T16:01:34.594Z,30.66
2023-05-12T16:04:01.341Z,31.10
2023-05-12T16:06:28.593Z,30.96
2023-05-12T16:08:55.107Z,31.19
2023-05-12T16:11:22.282Z,30.84
2023-05-12T16:13:52.090Z,30.78
2023-05-12T16:16:19.475Z,31.07
2023-05-12T16:18:46.130Z,30.38
2023-05-12T16:21:13.694Z,30.28
2023-05-12T16:23:40.334Z,30.56
2023-05-12T16:26:06.937Z,30.68
2023-05-12T16:28:34.615Z,31.02
2023-05-12T16:31:02.105Z,30.73
2023-05-12T16:33:29.824Z,30.46
2023-05-12T16:35:56.472Z,30.36
2023-05-12T16:38:23.041Z,30.86
2023-05-12T16:40:49.934Z,30.62
2023-05-12T16:43:17.044Z,31.31
2023-05-12T16:45:43.607Z,31.98
2023-05-12T16:48:10.375Z,31.96
2023-05-12T16:50:37.171Z,31.69
2023-05-12T16:53:03.695Z,31.96
2023-05-12T16:55:30.863Z,32.13
2023-05-12T16:57:57.382Z,32.14
2023-05-12T17:00:23.912Z,32.25
2023-05-12T17:02:51.040Z,31.59
2023-05-12T17:05:17.714Z,31.60
2023-05-12T17:07:44.269Z,32.18
2023-05-12T17:10:11.732Z,31.95
2023-05-12T17:12:38.393Z,31.92
2023-05-12T17:15:08.551Z,32.14
2023-05-12T17:17:36.219Z,33.54
2023-05-12T17:20:02.915Z,33.67
2023-05-12T17:22:30.942Z,33.60
2023-05-12T17:24:57.526Z,34.26
2023-05-12T17:27:24.002Z,34.23
2023-05-12T17:29:50.615Z,34.36
2023-05-12T17:32:17.136Z,35.02
2023-05-12T17:34:43.685Z,35.01
2023-05-12T17:37:10.585Z,35.29
2023-05-12T17:39:40.412Z,35.71
2023-05-12T17:42:07.317Z,34.79
2023-05-12T17:44:35.032Z,36.12
2023-05-12T17:47:01.900Z,37.21
2023-05-12T17:49:28.371Z,35.76
2023-05-12T17:51:55.551Z,37.46
2023-05-12T17:54:22.104Z,35.91
2023-05-12T17:56:48.767Z,35.36
2023-05-12T17:59:15.469Z,34.97
2023-05-12T18:01:42.021Z,35.59
2023-05-12T18:04:09.164Z,35.23
2023-05-12T18:06:35.701Z,35.06
2023-05-12T18:09:02.785Z,36.30
2023-05-12T18:11:29.401Z,36.75
2023-05-12T18:13:56.047Z,37.42
2023-05-12T18:16:29.182Z,37.81
2023-05-12T18:18:56.321Z,36.84
2023-05-12T18:21:22.999Z,36.68
2023-05-12T18:23:49.924Z,37.96
2023-05-12T18:26:16.542Z,38.25
2023-05-12T18:28:43.030Z,37.96
2023-05-12T18:31:15.589Z,38.70
2023-05-12T18:33:43.088Z,39.79
2023-05-12T18:36:10.309Z,39.45
2023-05-12T18:38:37.540Z,39.07
2023-05-12T18:41:04.006Z,38.87
2023-05-12T18:43:30.718Z,38.83
2023-05-12T18:45:57.309Z,39.37
2023-05-12T18:48:23.948Z,40.16
2023-05-12T18:50:51.695Z,40.60
2023-05-12T18:53:18.295Z,42.32
2023-05-12T18:55:44.920Z,42.21
2023-05-12T18:58:11.776Z,43.56
2023-05-12T19:00:38.430Z,43.98
2023-05-12T19:03:05.416Z,46.06
2023-05-12T19:05:32.515Z,47.24
2023-05-12T19:07:59.045Z,48.40
2023-05-12T19:10:27.044Z,48.00
2023-05-12T19:12:54.175Z,47.54
2023-05-12T19:15:21.857Z,47.71
2023-05-12T19:17:49.459Z,47.32
2023-05-12T19:20:16.250Z,46.35
2023-05-12T19:22:43.955Z,46.27
2023-05-12T19:25:10.922Z,45.74
2023-05-12T19:27:37.450Z,45.66
2023-05-12T19:30:07.567Z,45.50
2023-05-12T19:32:34.142Z,46.17
2023-05-12T19:35:01.093Z,47.35
2023-05-12T19:37:27.788Z,47.59
2023-05-12T19:39:54.379Z,48.18
2023-05-12T19:42:21.532Z,48.14
2023-05-12T19:44:48.020Z,47.76
2023-05-12T19:47:14.585Z,47.75
2023-05-12T19:49:41.688Z,46.69
2023-05-12T19:52:08.264Z,47.29
2023-05-12T19:54:35.070Z,47.64
2023-05-12T19:57:02.084Z,48.06
2023-05-12T19:59:28.615Z,48.06
2023-05-12T20:01:55.631Z,47.96
2023-05-12T20:04:23.061Z,47.69
2023-05-12T20:06:49.561Z,47.54
2023-05-12T20:09:16.617Z,46.72
2023-05-12T20:11:43.185Z,46.32
2023-05-12T20:14:11.665Z,47.11
2023-05-12T20:16:38.324Z,47.06
2023-05-12T20:19:05.450Z,47.27
2023-05-12T20:21:32.758Z,48.43
2023-05-12T20:23:59.300Z,48.58
2023-05-12T20:26:27.365Z,48.81
2023-05-12T20:28:54.780Z,49.75
2023-05-12T20:31:22.260Z,49.36
2023-05-12T20:33:49.140Z,49.51
2023-05-12T20:36:15.854Z,49.19
2023-05-12T20:38:42.474Z,49.02
2023-05-12T20:41:09.658Z,48.72
2023-05-12T20:43:36.457Z,48.14
2023-05-12T20:46:04.243Z,47.93
2023-05-12T20:48:31.195Z,48.10
2023-05-12T20:50:57.713Z,48.20
2023-05-12T20:53:24.326Z,49.05
2023-05-12T20:55:51.358Z,49.31
2023-05-12T20:58:18.189Z,49.37
2023-05-12T21:00:44.716Z,49.34
2023-05-12T21:03:16.749Z,49.22
2023-05-12T21:05:47.646Z,49.25
2023-05-12T21:08:14.774Z,49.86
2023-05-12T21:10:41.407Z,49.39
2023-05-12T21:13:07.941Z,49.28
2023-05-12T21:15:35.302Z,49.55
2023-05-12T21:18:01.819Z,49.39
2023-05-12T21:20:28.724Z,49.29
2023-05-12T21:22:56.987Z,49.20
2023-05-12T21:25:23.903Z,48.99
2023-05-12T21:27:52.381Z,49.03
2023-05-12T21:30:19.742Z,48.92
2023-05-12T21:32:46.536Z,49.60
2023-05-12T21:35:13.293Z,49.58
2023-05-12T21:37:39.761Z,49.90
2023-05-12T21:40:07.111Z,50.70
2023-05-12T21:42:33.829Z,50.49
2023-05-12T21:45:00.413Z,50.58
2023-05-12T21:47:26.972Z,50.68
2023-05-12T21:49:56.847Z,51.01
2023-05-12T21:52:23.727Z,50.95
2023-05-12T21:54:50.269Z,50.92
2023-05-12T21:57:16.978Z,51.23
2023-05-12T21:59:43.928Z,51.85
2023-05-12T22:02:10.774Z,51.79
2023-05-12T22:04:37.987Z,51.40
2023-05-12T22:07:04.702Z,52.64
2023-05-12T22:09:31.549Z,52.95
2023-05-12T22:11:58.180Z,53.20
2023-05-12T22:14:24.830Z,52.93
2023-05-12T22:16:51.464Z,52.85
2023-05-12T22:19:19.530Z,52.78
2023-05-12T22:21:46.143Z,52.31
2023-05-12T22:24:12.863Z,51.59
2023-05-12T22:26:39.490Z,51.79
2023-05-12T22:29:06.068Z,51.73
2023-05-12T22:31:33.112Z,51.81
2023-05-12T22:33:59.640Z,51.48
2023-05-12T22:36:26.502Z,51.63
2023-05-12T22:38:54.185Z,51.20
2023-05-12T22:41:20.690Z,51.37
2023-05-12T22:43:50.786Z,51.86
2023-05-12T22:46:17.621Z,52.27
2023-05-12T22:48:44.262Z,52.39
2023-05-12T22:51:10.696Z,52.28
2023-05-12T22:53:37.310Z,52.69
2023-05-12T22:56:03.848Z,52.88
2023-05-12T22:58:30.743Z,52.91
2023-05-12T23:00:57.337Z,52.72
2023-05-12T23:03:24.238Z,52.64
2023-05-12T23:05:50.935Z,52.76
2023-05-12T23:08:17.627Z,53.06
2023-05-12T23:10:44.463Z,52.63
2023-05-12T23:13:10.975Z,53.41
2023-05-12T23:15:37.693Z,53.24
2023-05-12T23:18:05.789Z,53.23
2023-05-12T23:20:32.624Z,53.46
2023-05-12T23:22:59.173Z,53.23
2023-05-12T23:25:26.219Z,52.78
2023-05-12T23:27:52.840Z,52.63
2023-05-12T23:30:20.939Z,52.44
2023-05-12T23:32:50.479Z,52.06
2023-05-12T23:35:17.304Z,52.40
2023-05-12T23:37:43.874Z,52.24
2023-05-12T23:40:10.973Z,52.42
2023-05-12T23:42:37.580Z,52.18
2023-05-12T23:45:04.596Z,52.37
2023-05-12T23:47:31.671Z,52.09
2023-05-12T23:49:58.179Z,51.90
2023-05-12T23:52:25.916Z,52.37
2023-05-12T23:54:53.059Z,52.32
2023-05-12T23:57:19.621Z,52.33
2023-05-12T23:59:46.863Z,52.91
